createdAt,value
2023-04-19T00:04:51.088Z,8.85
2023-04-19T00:09:54.219Z,8.80
2023-04-19T00:14:57.115Z,8.89
2023-04-19T00:20:01.897Z,8.88
2023-04-19T00:25:05.184Z,8.81
2023-04-19T00:30:09.020Z,8.62
2023-04-19T00:35:13.325Z,8.81
2023-04-19T00:40:16.341Z,8.92
2023-04-19T00:45:19.325Z,8.61
2023-04-19T00:50:23.956Z,8.66
2023-04-19T00:55:27.051Z,8.62
2023-04-19T01:00:30.110Z,8.51
2023-04-19T01:05:34.384Z,8.62
2023-04-19T01:10:37.319Z,8.45
2023-04-19T01:15:40.307Z,8.24
2023-04-19T01:20:44.616Z,8.17
2023-04-19T01:25:48.871Z,7.94
2023-04-19T01:30:53.845Z,7.91
2023-04-19T01:35:56.808Z,7.84
2023-04-19T01:41:01.100Z,7.88
2023-04-19T01:46:03.999Z,7.99
2023-04-19T01:51:07.102Z,7.92
2023-04-19T01:56:12.713Z,8.05
2023-04-19T02:01:15.752Z,7.76
2023-04-19T02:06:18.855Z,7.75
2023-04-19T02:11:23.111Z,7.58
2023-04-19T02:16:26.116Z,7.54
2023-04-19T02:21:29.172Z,7.46
2023-04-19T02:26:33.476Z,7.48
2023-04-19T02:31:37.866Z,7.36
2023-04-19T02:36:40.862Z,7.45
2023-04-19T02:41:45.081Z,7.45
2023-04-19T02:46:49.987Z,7.33
2023-04-19T02:51:53.319Z,7.47
2023-04-19T02:56:57.793Z,7.11
2023-04-19T03:02:00.982Z,7.08
2023-04-19T03:07:04.091Z,7.15
2023-04-19T03:12:09.321Z,7.24
2023-04-19T03:17:12.413Z,7.16
2023-04-19T03:22:15.395Z,6.96
2023-04-19T03:27:20.251Z,7.16
2023-04-19T03:32:28.557Z,6.99
2023-04-19T03:37:31.527Z,6.77
2023-04-19T03:42:36.549Z,7.03
2023-04-19T03:48:03.153Z,6.77
2023-04-19T03:53:06.993Z,6.81
2023-04-19T03:58:12.032Z,6.73
2023-04-19T04:03:24.349Z,6.65
2023-04-19T04:08:27.590Z,6.60
2023-04-19T04:13:31.856Z,6.53
2023-04-19T04:18:49.479Z,6.56
2023-04-19T04:23:53.261Z,6.37
2023-04-19T04:29:06.786Z,6.34
2023-04-19T04:34:10.838Z,6.48
2023-04-19T04:39:22.784Z,6.28
2023-04-19T04:49:31.543Z,6.29
2023-04-19T04:54:34.983Z,6.21
2023-04-19T04:59:39.392Z,6.12
2023-04-19T05:04:42.675Z,5.99
2023-04-19T05:09:46.424Z,5.85
2023-04-19T05:14:55.415Z,5.79
2023-04-19T05:19:58.558Z,6.15
2023-04-19T05:25:02.194Z,6.12
2023-04-19T05:30:08.210Z,5.98
2023-04-19T05:35:15.936Z,5.83
2023-04-19T05:40:20.358Z,6.10
2023-04-19T05:45:24.998Z,5.84
2023-04-19T05:50:28.468Z,5.81
2023-04-19T05:56:09.626Z,6.06
2023-04-19T06:01:14.014Z,5.98
2023-04-19T06:06:17.207Z,5.98
2023-04-19T06:11:28.726Z,5.70
2023-04-19T06:16:35.989Z,5.94
2023-04-19T06:21:39.135Z,6.33
2023-04-19T06:26:42.097Z,6.20
2023-04-19T06:31:46.785Z,6.24
2023-04-19T06:36:49.700Z,6.63
2023-04-19T06:41:52.717Z,6.27
2023-04-19T06:46:56.972Z,6.26
2023-04-19T06:52:01.680Z,6.43
2023-04-19T06:57:04.569Z,6.77
2023-04-19T07:02:09.252Z,7.65
2023-04-19T07:07:12.248Z,7.22
2023-04-19T07:12:15.138Z,8.99
2023-04-19T07:17:19.848Z,8.50
2023-04-19T07:22:23.321Z,9.19
2023-04-19T07:27:26.331Z,8.42
2023-04-19T07:32:32.026Z,8.88
2023-04-19T07:37:36.135Z,8.80
2023-04-19T07:42:39.042Z,8.36
2023-04-19T07:47:43.328Z,8.91
2023-04-19T07:52:46.241Z,8.12
2023-04-19T07:57:49.187Z,8.99
2023-04-19T08:02:53.686Z,9.08
2023-04-19T08:07:56.837Z,10.61
2023-04-19T08:13:05.870Z,10.80
2023-04-19T08:18:11.115Z,9.97
2023-04-19T08:23:22.957Z,10.77
2023-04-19T08:28:28.856Z,8.92
2023-04-19T08:33:33.088Z,8.46
2023-04-19T08:38:36.021Z,8.38
2023-04-19T08:43:40.547Z,8.99
2023-04-19T08:48:48.431Z,10.05
2023-04-19T08:53:52.723Z,9.28
2023-04-19T09:04:17.014Z,8.77
2023-04-19T09:14:33.499Z,9.80
2023-04-19T09:19:47.821Z,9.44
2023-04-19T09:29:59.166Z,8.73
2023-04-19T09:35:03.982Z,9.54
2023-04-19T09:40:25.054Z,8.32
2023-04-19T09:45:30.658Z,8.99
2023-04-19T09:50:46.220Z,9.79
2023-04-19T09:56:02.170Z,9.10
2023-04-19T10:01:14.751Z,8.99
2023-04-19T10:11:28.161Z,8.96
2023-04-19T10:16:32.697Z,9.26
2023-04-19T10:21:38.157Z,8.96
2023-04-19T10:27:11.363Z,9.02
2023-04-19T10:32:14.666Z,9.66
2023-04-19T10:37:22.646Z,9.70
2023-04-19T10:42:25.570Z,9.95
2023-04-19T10:47:42.424Z,9.41
2023-04-19T10:52:46.772Z,9.36
2023-04-19T10:58:06.338Z,9.94
2023-04-19T11:03:42.983Z,9.97
2023-04-19T11:08:47.856Z,9.28
2023-04-19T11:13:51.268Z,9.78
2023-04-19T11:18:54.131Z,10.01
2023-04-19T11:24:11.118Z,10.22
2023-04-19T11:29:14.157Z,9.34
2023-04-19T11:34:17.428Z,10.03
2023-04-19T11:39:22.424Z,10.41
2023-04-19T11:44:25.391Z,9.82
2023-04-19T11:49:29.509Z,10.35
2023-04-19T11:54:34.172Z,9.20
2023-04-19T11:59:37.751Z,9.09
2023-04-19T12:04:41.163Z,9.62
2023-04-19T12:09:50.192Z,9.59
2023-04-19T12:14:53.596Z,9.72
2023-04-19T12:19:56.481Z,9.58
2023-04-19T12:25:00.753Z,9.87
2023-04-19T12:30:07.025Z,9.99
2023-04-19T12:35:11.090Z,9.83
2023-04-19T12:40:16.402Z,9.63
2023-04-19T12:45:20.187Z,9.86
2023-04-19T12:50:23.257Z,10.32
2023-04-19T12:55:27.708Z,9.69
2023-04-19T13:00:31.163Z,10.29
2023-04-19T13:05:34.113Z,9.87
2023-04-19T13:10:38.483Z,10.90
2023-04-19T13:15:42.052Z,10.51
2023-04-19T13:20:45.016Z,10.43
2023-04-19T13:25:49.325Z,10.60
2023-04-19T13:30:52.548Z,10.62
2023-04-19T13:35:55.784Z,10.65
2023-04-19T13:41:00.773Z,10.40
2023-04-19T13:46:03.769Z,10.83
2023-04-19T13:51:07.795Z,11.04
2023-04-19T13:56:12.142Z,10.80
2023-04-19T14:01:15.292Z,9.96
2023-04-19T14:06:18.253Z,10.22
2023-04-19T14:11:23.439Z,9.44
2023-04-19T14:16:26.486Z,8.35
2023-04-19T14:21:29.491Z,7.81
2023-04-19T14:26:33.896Z,7.27
2023-04-19T14:31:36.815Z,7.22
2023-04-19T14:36:39.795Z,7.95
2023-04-19T14:41:44.553Z,7.61
2023-04-19T14:46:47.447Z,7.25
2023-04-19T14:51:50.342Z,7.40
2023-04-19T14:56:54.644Z,7.79
2023-04-19T15:01:57.846Z,7.21
2023-04-19T15:07:00.920Z,7.04
2023-04-19T15:12:05.886Z,7.34
2023-04-19T15:17:08.796Z,6.73
2023-04-19T15:22:11.714Z,6.55
2023-04-19T15:27:16.081Z,6.69
2023-04-19T15:32:21.566Z,6.27
2023-04-19T15:37:24.813Z,5.80
2023-04-19T15:42:29.133Z,6.28
2023-04-19T15:47:32.101Z,6.27
2023-04-19T15:52:35.496Z,6.76
2023-04-19T15:57:39.885Z,6.90
2023-04-19T16:02:43.287Z,6.21
2023-04-19T16:07:46.773Z,6.14
2023-04-19T16:12:51.072Z,5.67
2023-04-19T16:17:54.132Z,5.63
2023-04-19T16:22:58.742Z,6.06
2023-04-19T16:28:03.082Z,6.34
2023-04-19T16:33:07.575Z,6.33
2023-04-19T16:38:10.856Z,6.56
2023-04-19T16:43:15.139Z,6.77
2023-04-19T16:48:18.158Z,6.84
2023-04-19T16:53:21.243Z,6.73
2023-04-19T16:58:25.473Z,6.87
2023-04-19T17:03:30.284Z,6.53
2023-04-19T17:08:34.243Z,6.79
2023-04-19T17:13:38.816Z,6.47
2023-04-19T17:18:41.830Z,5.97
2023-04-19T17:23:46.188Z,5.93
2023-04-19T17:28:50.634Z,5.51
2023-04-19T17:33:53.665Z,5.72
2023-04-19T17:38:57.836Z,5.63
2023-04-19T17:44:02.778Z,5.63
2023-04-19T17:49:06.111Z,5.66
2023-04-19T17:54:09.082Z,5.87
2023-04-19T17:59:13.446Z,6.02
2023-04-19T18:04:20.132Z,6.06
2023-04-19T18:09:23.189Z,5.93
2023-04-19T18:14:27.473Z,5.80
2023-04-19T18:19:30.447Z,5.61
2023-04-19T18:24:33.452Z,5.97
2023-04-19T18:29:37.814Z,5.78
2023-04-19T18:34:40.784Z,5.37
2023-04-19T18:39:43.892Z,5.09
2023-04-19T18:50:04.439Z,5.82
2023-04-19T18:55:10.757Z,5.85
2023-04-19T19:00:16.115Z,5.96
2023-04-19T19:05:19.119Z,6.01
2023-04-19T19:10:26.605Z,5.72
2023-04-19T19:15:46.449Z,5.75
2023-04-19T19:20:51.358Z,5.92
2023-04-19T19:25:54.469Z,5.99
2023-04-19T19:30:58.809Z,5.75
2023-04-19T19:36:01.821Z,5.75
2023-04-19T19:46:14.038Z,5.91
2023-04-19T19:51:44.221Z,5.89
2023-04-19T19:56:55.640Z,5.84
2023-04-19T20:02:04.521Z,5.78
2023-04-19T20:07:32.491Z,5.69
2023-04-19T20:12:30.398Z,5.71
2023-04-19T20:17:34.951Z,5.73
2023-04-19T20:22:38.045Z,5.71
2023-04-19T20:27:40.964Z,5.71
2023-04-19T20:32:45.442Z,5.50
2023-04-19T20:37:48.493Z,5.51
2023-04-19T20:42:51.531Z,5.51
2023-04-19T20:47:55.849Z,5.28
2023-04-19T20:52:58.818Z,5.36
2023-04-19T20:58:02.531Z,5.20
2023-04-19T21:03:07.945Z,5.25
2023-04-19T21:08:11.093Z,5.35
2023-04-19T21:13:13.994Z,5.22
2023-04-19T21:18:18.584Z,5.22
2023-04-19T21:23:21.470Z,5.05
2023-04-19T21:28:24.938Z,5.16
2023-04-19T21:33:29.288Z,5.07
2023-04-19T21:38:32.198Z,5.04
2023-04-19T21:43:35.673Z,5.15
2023-04-19T21:48:40.065Z,4.98
2023-04-19T21:53:42.914Z,4.98
2023-04-19T21:58:45.893Z,4.82
2023-04-19T22:03:50.473Z,4.85
2023-04-19T22:08:53.711Z,4.80
2023-04-19T22:13:56.752Z,5.01
2023-04-19T22:19:01.372Z,5.09
2023-04-19T22:24:04.694Z,5.11
2023-04-19T22:29:07.641Z,5.00
2023-04-19T22:34:11.924Z,4.98
2023-04-19T22:39:16.122Z,4.95
2023-04-19T22:44:19.292Z,5.02
2023-04-19T22:49:24.033Z,4.82
2023-04-19T22:54:27.191Z,5.07
2023-04-19T22:59:30.176Z,5.17
2023-04-19T23:04:36.089Z,5.21
2023-04-19T23:09:39.489Z,5.18
2023-04-19T23:14:42.561Z,5.06
2023-04-19T23:19:46.841Z,5.03
2023-04-19T23:24:49.783Z,5.07
2023-04-19T23:29:52.667Z,5.07
2023-04-19T23:34:57.012Z,4.92
2023-04-19T23:40:00.061Z,5.03
2023-04-19T23:45:02.948Z,4.98
2023-04-19T23:50:08.409Z,4.98
2023-04-19T23:55:11.350Z,4.89
